Time;durP1;ratioP1;P1;durP2;ratioP2;P2;SDS_P1;SDS_P2;PMS_P1;PMS_P2;Temp;Humidity;BMP_temperature;BMP_pressure;BME280_temperature;BME280_humidity;BME280_pressure;Samples;Min_cycle;Max_cycle;Signal;HPM_P1;HPM_P2
2021/11/26 00:02:27;;;;;;;27.67;17.70;;;;;;;;;;5060338;28;20213;-75
2021/11/26 00:04:54;;;;;;;25.55;14.38;;;;;;;;;;5052477;28;20203;-75
2021/11/26 00:07:22;;;;;;;30.60;17.92;;;;;;;;;;5059309;28;20677;-75
2021/11/26 00:09:52;;;;;;;28.73;16.48;;;;;;;;;;5054430;28;20202;-75
2021/11/26 00:12:19;;;;;;;29.10;16.15;;;;;;;;;;5052234;28;20247;-75
2021/11/26 00:14:51;;;;;;;24.70;16.20;;;;;;;;;;5060549;28;20424;-75
2021/11/26 00:17:19;;;;;;;27.63;16.70;;;;;;;;;;5052027;28;20187;-75
2021/11/26 00:19:46;;;;;;;25.25;17.02;;;;;;;;;;5052924;28;20248;-75
2021/11/26 00:22:14;;;;;;;29.92;16.35;;;;;;;;;;5067453;28;20205;-76
2021/11/26 00:24:41;;;;;;;29.95;17.27;;;;;;;;;;5051776;28;20210;-75
2021/11/26 00:27:10;;;;;;;27.77;15.65;;;;;;;;;;5051568;28;20578;-75
2021/11/26 00:29:37;;;;;;;25.58;17.65;;;;;;;;;;5051698;28;20601;-75
2021/11/26 00:32:04;;;;;;;33.67;17.17;;;;;;;;;;5062070;28;20201;-76
2021/11/26 00:34:31;;;;;;;29.17;17.67;;;;;;;;;;5056752;28;20203;-75
2021/11/26 00:36:58;;;;;;;30.42;17.02;;;;;;;;;;5053004;28;20205;-75
2021/11/26 00:39:25;;;;;;;24.65;15.50;;;;;;;;;;5060192;28;20210;-75
2021/11/26 00:41:53;;;;;;;28.98;17.05;;;;;;;;;;5058077;28;20558;-75
2021/11/26 00:44:21;;;;;;;28.42;16.25;;;;;;;;;;5066751;28;20660;-79
2021/11/26 00:46:48;;;;;;;35.95;18.42;;;;;;;;;;5052573;28;20575;-75
2021/11/26 00:49:15;;;;;;;28.33;17.38;;;;;;;;;;5051502;28;20209;-75
2021/11/26 00:51:42;;;;;;;19.10;13.93;;;;;;;;;;5052950;28;20187;-75
2021/11/26 00:54:09;;;;;;;30.10;17.50;;;;;;;;;;5051325;28;20191;-75
2021/11/26 00:56:36;;;;;;;28.38;16.52;;;;;;;;;;5069492;28;20202;-75
2021/11/26 00:59:03;;;;;;;23.90;16.08;;;;;;;;;;5056859;28;20222;-75
2021/11/26 01:01:32;;;;;;;27.67;14.73;;;;;;;;;;5060311;28;20203;-75
2021/11/26 01:03:59;;;;;;;30.42;15.18;;;;;;;;;;5064333;28;20724;-75
2021/11/26 01:06:26;;;;;;;28.00;17.27;;;;;;;;;;5067125;28;20225;-76
2021/11/26 01:08:53;;;;;;;30.63;17.05;;;;;;;;;;5057677;28;20195;-75
2021/11/26 01:11:20;;;;;;;23.90;15.25;;;;;;;;;;5055431;28;20506;-76
2021/11/26 01:13:47;;;;;;;32.78;16.88;;;;;;;;;;5051201;28;20199;-76
2021/11/26 01:16:14;;;;;;;29.95;15.35;;;;;;;;;;5055744;28;20191;-77
2021/11/26 01:18:43;;;;;;;28.73;16.20;;;;;;;;;;5065121;28;20199;-75
2021/11/26 01:21:10;;;;;;;28.95;15.70;;;;;;;;;;5063443;28;20210;-76
2021/11/26 01:23:37;;;;;;;27.08;15.77;;;;;;;;;;5065282;28;20191;-77
2021/11/26 01:26:05;;;;;;;28.48;16.27;;;;;;;;;;5057906;28;20194;-76
2021/11/26 01:28:33;;;;;;;28.27;18.80;;;;;;;;;;5060490;28;20194;-75
2021/11/26 01:31:00;;;;;;;27.77;17.77;;;;;;;;;;5055885;28;20664;-76
2021/11/26 01:33:27;;;;;;;24.92;13.63;;;;;;;;;;5061797;28;20201;-76
2021/11/26 01:35:55;;;;;;;22.92;14.77;;;;;;;;;;5067718;28;20205;-76
2021/11/26 01:38:23;;;;;;;27.02;16.60;;;;;;;;;;5070750;28;20546;-76
2021/11/26 01:40:50;;;;;;;20.08;14.45;;;;;;;;;;5055538;28;20198;-76
2021/11/26 01:43:20;;;;;;;26.40;16.70;;;;;;;;;;5054398;28;20650;-76
2021/11/26 01:45:48;;;;;;;25.35;16.13;;;;;;;;;;5056256;28;20221;-77
2021/11/26 01:48:15;;;;;;;27.15;15.05;;;;;;;;;;5054202;28;20218;-76
2021/11/26 01:50:42;;;;;;;22.77;14.00;;;;;;;;;;5059281;28;20203;-76
2021/11/26 01:53:11;;;;;;;26.77;14.75;;;;;;;;;;5065583;28;20198;-77
2021/11/26 01:55:38;;;;;;;21.80;13.88;;;;;;;;;;5061185;28;20554;-76
2021/11/26 01:58:10;;;;;;;20.85;12.75;;;;;;;;;;5057904;28;20205;-77
2021/11/26 02:00:37;;;;;;;27.73;13.95;;;;;;;;;;5058595;28;20709;-75
2021/11/26 02:03:04;;;;;;;26.20;15.52;;;;;;;;;;5062908;28;20217;-76
2021/11/26 02:05:31;;;;;;;23.50;14.65;;;;;;;;;;5060949;28;20194;-75
2021/11/26 02:07:58;;;;;;;23.05;13.90;;;;;;;;;;5061682;28;20215;-76
2021/11/26 02:10:27;;;;;;;20.85;13.30;;;;;;;;;;5052534;28;20206;-77
2021/11/26 02:12:54;;;;;;;28.73;14.63;;;;;;;;;;5057020;28;20646;-75
2021/11/26 02:15:23;;;;;;;27.23;15.23;;;;;;;;;;5055950;28;20643;-74
2021/11/26 02:17:50;;;;;;;23.20;13.45;;;;;;;;;;5065222;28;20723;-75
2021/11/26 02:20:20;;;;;;;18.17;12.45;;;;;;;;;;5058074;28;20221;-75
2021/11/26 02:22:47;;;;;;;28.27;14.90;;;;;;;;;;5054701;28;20199;-75
2021/11/26 02:25:15;;;;;;;21.63;11.88;;;;;;;;;;5055198;28;20220;-75
2021/11/26 02:27:42;;;;;;;21.88;12.98;;;;;;;;;;5053496;28;20226;-77
2021/11/26 02:30:14;;;;;;;18.35;12.63;;;;;;;;;;5056066;28;20198;-75
2021/11/26 02:32:42;;;;;;;23.98;14.25;;;;;;;;;;5054221;28;20666;-75
2021/11/26 02:35:10;;;;;;;23.58;14.38;;;;;;;;;;5057267;28;20202;-76
2021/11/26 02:37:38;;;;;;;25.30;13.93;;;;;;;;;;5061056;28;20657;-76
2021/11/26 02:40:06;;;;;;;18.67;12.40;;;;;;;;;;5053422;28;20680;-75
2021/11/26 02:42:33;;;;;;;19.98;12.43;;;;;;;;;;5059918;28;20210;-76
2021/11/26 02:45:00;;;;;;;22.55;12.10;;;;;;;;;;5054512;28;20198;-76
2021/11/26 02:47:27;;;;;;;19.58;13.05;;;;;;;;;;5058708;28;20222;-75
2021/11/26 02:49:54;;;;;;;26.15;15.07;;;;;;;;;;5067090;28;20213;-76
2021/11/26 02:52:22;;;;;;;22.42;13.10;;;;;;;;;;5058198;28;20621;-76
2021/11/26 02:54:52;;;;;;;21.08;13.18;;;;;;;;;;5055058;28;20214;-76
2021/11/26 02:57:19;;;;;;;21.17;12.55;;;;;;;;;;5062114;28;20291;-77
2021/11/26 02:59:46;;;;;;;16.27;11.50;;;;;;;;;;5055218;28;20533;-76
2021/11/26 03:02:13;;;;;;;18.20;11.32;;;;;;;;;;5057309;28;20210;-77
2021/11/26 03:04:40;;;;;;;17.70;10.40;;;;;;;;;;5054436;28;20218;-76
2021/11/26 03:07:08;;;;;;;17.67;11.30;;;;;;;;;;5062844;28;20242;-74
2021/11/26 03:09:35;;;;;;;19.65;11.35;;;;;;;;;;5053202;28;20191;-74
2021/11/26 03:12:04;;;;;;;18.48;11.88;;;;;;;;;;5054617;28;20646;-76
2021/11/26 03:14:31;;;;;;;17.92;10.75;;;;;;;;;;5053171;28;20201;-75
2021/11/26 03:16:58;;;;;;;19.08;12.30;;;;;;;;;;5060045;28;20201;-74
2021/11/26 03:19:26;;;;;;;26.92;13.65;;;;;;;;;;5054213;28;20214;-74
2021/11/26 03:21:53;;;;;;;18.15;11.10;;;;;;;;;;5059071;28;20199;-76
2021/11/26 03:24:20;;;;;;;16.60;12.55;;;;;;;;;;5054187;28;20558;-74
2021/11/26 03:26:47;;;;;;;19.45;10.75;;;;;;;;;;5060183;28;20195;-75
2021/11/26 03:29:15;;;;;;;22.50;14.70;;;;;;;;;;5052761;28;20198;-76
2021/11/26 03:31:42;;;;;;;20.25;10.60;;;;;;;;;;5059458;28;20229;-74
2021/11/26 03:34:09;;;;;;;18.58;12.07;;;;;;;;;;5056754;28;20195;-75
2021/11/26 03:36:36;;;;;;;20.23;11.45;;;;;;;;;;5064694;28;20203;-74
2021/11/26 03:39:04;;;;;;;21.83;12.50;;;;;;;;;;5056707;28;20190;-74
2021/11/26 03:41:31;;;;;;;18.73;12.32;;;;;;;;;;5057388;28;20201;-75
2021/11/26 03:43:58;;;;;;;25.48;10.80;;;;;;;;;;5055055;28;20283;-74
2021/11/26 03:46:27;;;;;;;18.83;11.65;;;;;;;;;;5054528;28;20592;-76
2021/11/26 03:48:54;;;;;;;20.33;10.40;;;;;;;;;;5051995;28;20214;-75
2021/11/26 03:51:21;;;;;;;19.40;12.23;;;;;;;;;;5063948;28;20205;-75
2021/11/26 03:53:48;;;;;;;19.35;13.10;;;;;;;;;;5055701;28;20194;-74
2021/11/26 03:56:15;;;;;;;18.95;10.50;;;;;;;;;;5056802;28;20206;-76
2021/11/26 03:58:42;;;;;;;17.02;11.73;;;;;;;;;;5058266;28;20193;-75
2021/11/26 04:01:09;;;;;;;17.80;11.38;;;;;;;;;;5062166;28;20619;-76
2021/11/26 04:03:38;;;;;;;19.42;11.25;;;;;;;;;;5055303;28;20210;-77
2021/11/26 04:06:05;;;;;;;17.90;10.38;;;;;;;;;;5064515;28;20558;-74
2021/11/26 04:08:32;;;;;;;16.85;10.60;;;;;;;;;;5054506;28;20218;-75
2021/11/26 04:10:59;;;;;;;20.70;12.65;;;;;;;;;;5062153;28;20198;-75
2021/11/26 04:13:26;;;;;;;19.25;10.73;;;;;;;;;;5060818;28;20217;-75
2021/11/26 04:16:00;;;;;;;16.73;11.60;;;;;;;;;;5067360;28;20191;-74
2021/11/26 04:18:27;;;;;;;18.77;10.65;;;;;;;;;;5068132;28;20628;-75
2021/11/26 04:20:56;;;;;;;21.27;11.98;;;;;;;;;;5067339;28;20331;-74
2021/11/26 04:23:23;;;;;;;18.95;11.40;;;;;;;;;;5059099;28;20203;-74
2021/11/26 04:25:50;;;;;;;19.23;10.82;;;;;;;;;;5055394;28;20621;-75
2021/11/26 04:28:17;;;;;;;21.70;12.00;;;;;;;;;;5062642;28;20573;-76
2021/11/26 04:30:44;;;;;;;16.42;10.50;;;;;;;;;;5057117;28;20194;-76
2021/11/26 04:33:11;;;;;;;19.35;12.50;;;;;;;;;;5051966;28;20198;-75
2021/11/26 04:35:38;;;;;;;20.67;12.02;;;;;;;;;;5056952;28;20565;-76
2021/11/26 04:38:07;;;;;;;18.85;11.80;;;;;;;;;;5061481;28;20195;-75
2021/11/26 04:40:34;;;;;;;20.50;12.07;;;;;;;;;;5049977;28;20202;-75
2021/11/26 04:43:01;;;;;;;15.20;10.88;;;;;;;;;;5056332;28;20194;-76
2021/11/26 04:45:28;;;;;;;19.58;11.73;;;;;;;;;;5053957;28;20202;-75
2021/11/26 04:47:55;;;;;;;19.48;10.38;;;;;;;;;;5065760;28;20313;-75
2021/11/26 04:50:22;;;;;;;16.45;12.13;;;;;;;;;;5059039;28;20198;-75
2021/11/26 04:52:49;;;;;;;23.10;11.80;;;;;;;;;;5053576;28;20195;-76
2021/11/26 04:55:18;;;;;;;15.35;10.85;;;;;;;;;;5054438;28;20666;-75
2021/11/26 04:57:45;;;;;;;16.10;11.00;;;;;;;;;;5052998;28;20276;-76
2021/11/26 05:00:15;;;;;;;16.85;11.52;;;;;;;;;;5050718;28;20222;-75
2021/11/26 05:02:42;;;;;;;17.75;12.52;;;;;;;;;;5049973;28;20199;-75
2021/11/26 05:05:09;;;;;;;15.13;10.93;;;;;;;;;;5058375;28;20202;-76
2021/11/26 05:07:36;;;;;;;16.27;10.45;;;;;;;;;;5062030;28;20738;-74
2021/11/26 05:10:04;;;;;;;18.45;11.10;;;;;;;;;;5055305;28;20653;-74
2021/11/26 05:12:35;;;;;;;20.58;11.13;;;;;;;;;;5052648;28;20209;-77
2021/11/26 05:15:02;;;;;;;17.65;10.80;;;;;;;;;;5056283;28;20197;-75
2021/11/26 05:17:29;;;;;;;20.08;12.73;;;;;;;;;;5051712;28;20565;-77
2021/11/26 05:19:58;;;;;;;16.60;11.55;;;;;;;;;;5055861;28;20248;-78
2021/11/26 05:22:25;;;;;;;24.00;12.65;;;;;;;;;;5051222;28;20236;-79
2021/11/26 05:24:52;;;;;;;17.73;11.65;;;;;;;;;;5052121;28;20199;-77
2021/11/26 05:27:19;;;;;;;18.60;11.88;;;;;;;;;;5054095;28;20206;-79
2021/11/26 05:29:47;;;;;;;15.85;11.80;;;;;;;;;;5060008;28;20193;-78
2021/11/26 05:32:14;;;;;;;19.02;11.80;;;;;;;;;;5064271;28;20201;-77
2021/11/26 05:34:41;;;;;;;23.13;12.95;;;;;;;;;;5060070;28;20201;-79
2021/11/26 05:37:09;;;;;;;22.17;13.18;;;;;;;;;;5054688;28;20195;-76
2021/11/26 05:39:36;;;;;;;15.70;11.57;;;;;;;;;;5054267;28;20187;-78
2021/11/26 05:42:03;;;;;;;14.43;9.68;;;;;;;;;;5050688;28;20535;-79
2021/11/26 05:44:31;;;;;;;20.38;12.63;;;;;;;;;;5050749;28;20206;-78
2021/11/26 05:46:59;;;;;;;17.83;12.02;;;;;;;;;;5061320;28;20233;-78
2021/11/26 05:49:26;;;;;;;19.95;12.40;;;;;;;;;;5062639;28;20313;-77
2021/11/26 05:51:54;;;;;;;18.95;11.32;;;;;;;;;;5056504;28;20187;-78
2021/11/26 05:54:21;;;;;;;18.13;11.70;;;;;;;;;;5056723;28;20221;-77
2021/11/26 05:56:48;;;;;;;12.05;9.82;;;;;;;;;;5050591;28;20214;-78
2021/11/26 05:59:15;;;;;;;16.27;10.35;;;;;;;;;;5050910;28;20225;-79
2021/11/26 06:01:43;;;;;;;16.73;12.85;;;;;;;;;;5062462;28;20669;-79
2021/11/26 06:04:11;;;;;;;15.90;11.32;;;;;;;;;;5068115;28;20217;-78
2021/11/26 06:06:38;;;;;;;20.25;12.07;;;;;;;;;;5063809;28;20249;-78
2021/11/26 06:09:05;;;;;;;19.42;11.70;;;;;;;;;;5060088;28;20704;-80
2021/11/26 06:11:32;;;;;;;17.58;11.98;;;;;;;;;;5059716;28;20666;-78
2021/11/26 06:14:00;;;;;;;17.15;12.27;;;;;;;;;;5057503;28;20191;-77
2021/11/26 06:16:28;;;;;;;19.70;12.10;;;;;;;;;;5066474;28;20198;-77
2021/11/26 06:18:55;;;;;;;22.75;12.35;;;;;;;;;;5062333;28;20630;-78
2021/11/26 06:21:23;;;;;;;17.35;12.48;;;;;;;;;;5061813;28;20201;-76
2021/11/26 06:23:50;;;;;;;18.42;11.65;;;;;;;;;;5058682;28;20565;-78
2021/11/26 06:26:17;;;;;;;16.70;11.55;;;;;;;;;;5058621;28;20206;-79
2021/11/26 06:28:45;;;;;;;15.23;12.15;;;;;;;;;;5060228;28;20584;-78
2021/11/26 06:31:12;;;;;;;18.55;12.40;;;;;;;;;;5071737;28;20503;-78
2021/11/26 06:33:39;;;;;;;14.73;11.90;;;;;;;;;;5055059;28;20596;-78
2021/11/26 06:36:06;;;;;;;15.43;11.70;;;;;;;;;;5062787;28;20187;-78
2021/11/26 06:38:34;;;;;;;18.50;11.15;;;;;;;;;;5058503;28;20191;-78
2021/11/26 06:41:01;;;;;;;15.30;11.05;;;;;;;;;;5062829;28;20198;-77
2021/11/26 06:43:28;;;;;;;18.27;11.25;;;;;;;;;;5059766;28;20658;-80
2021/11/26 06:45:56;;;;;;;16.90;12.35;;;;;;;;;;5064078;28;20638;-75
2021/11/26 06:48:25;;;;;;;19.08;10.95;;;;;;;;;;5064066;28;20685;-77
2021/11/26 06:50:52;;;;;;;17.67;11.52;;;;;;;;;;5052667;28;20321;-75
2021/11/26 06:53:19;;;;;;;17.20;11.20;;;;;;;;;;5057568;28;20222;-76
2021/11/26 06:55:49;;;;;;;16.15;13.23;;;;;;;;;;5059734;28;20688;-75
2021/11/26 06:58:17;;;;;;;12.77;11.27;;;;;;;;;;5061801;28;20542;-76
2021/11/26 07:00:44;;;;;;;14.75;10.63;;;;;;;;;;5056439;28;20230;-76
2021/11/26 07:03:11;;;;;;;15.52;10.77;;;;;;;;;;5060792;28;20234;-75
2021/11/26 07:05:38;;;;;;;14.20;10.93;;;;;;;;;;5051058;28;20195;-75
2021/11/26 07:08:06;;;;;;;16.30;11.73;;;;;;;;;;5061120;28;20210;-75
2021/11/26 07:10:33;;;;;;;15.20;10.70;;;;;;;;;;5055478;28;20566;-75
2021/11/26 07:13:02;;;;;;;15.18;10.90;;;;;;;;;;5055091;28;20199;-75
2021/11/26 07:15:29;;;;;;;13.65;10.40;;;;;;;;;;5059699;28;20199;-74
2021/11/26 07:17:57;;;;;;;14.98;11.82;;;;;;;;;;5056523;28;20563;-74
2021/11/26 07:20:24;;;;;;;15.13;11.80;;;;;;;;;;5056446;28;20306;-78
2021/11/26 07:22:51;;;;;;;15.48;9.95;;;;;;;;;;5062828;28;20199;-74
2021/11/26 07:25:18;;;;;;;17.38;11.10;;;;;;;;;;5052166;28;20236;-75
2021/11/26 07:27:45;;;;;;;12.73;10.30;;;;;;;;;;5052136;28;20950;-78
2021/11/26 07:30:14;;;;;;;16.90;11.50;;;;;;;;;;5058604;28;20226;-75
2021/11/26 07:32:41;;;;;;;16.75;9.65;;;;;;;;;;5053115;28;20587;-77
2021/11/26 07:35:09;;;;;;;13.43;9.88;;;;;;;;;;5054521;28;20198;-77
2021/11/26 07:37:36;;;;;;;17.60;10.82;;;;;;;;;;5051455;28;21891;-75
2021/11/26 07:40:04;;;;;;;16.33;10.20;;;;;;;;;;5050739;28;20658;-77
2021/11/26 07:42:31;;;;;;;14.23;10.93;;;;;;;;;;5051984;28;20199;-78
2021/11/26 07:44:58;;;;;;;12.80;10.63;;;;;;;;;;5050998;28;20209;-79
2021/11/26 07:47:27;;;;;;;13.30;10.80;;;;;;;;;;5051459;28;20214;-75
2021/11/26 07:49:54;;;;;;;11.15;9.10;;;;;;;;;;5052250;28;20706;-75
2021/11/26 07:52:21;;;;;;;10.82;9.05;;;;;;;;;;5049854;28;20210;-74
2021/11/26 07:54:48;;;;;;;13.93;10.13;;;;;;;;;;5053364;28;20198;-76
2021/11/26 07:57:16;;;;;;;11.40;8.95;;;;;;;;;;5055778;28;20214;-77
2021/11/26 07:59:43;;;;;;;10.40;8.77;;;;;;;;;;5051297;28;20234;-76
2021/11/26 08:02:10;;;;;;;11.23;9.40;;;;;;;;;;5049455;28;20359;-75
2021/11/26 08:04:39;;;;;;;9.88;8.88;;;;;;;;;;5056850;28;20198;-75
2021/11/26 08:07:06;;;;;;;12.05;9.30;;;;;;;;;;5050615;28;20887;-74
2021/11/26 08:09:33;;;;;;;9.65;7.55;;;;;;;;;;5054080;28;20215;-74
2021/11/26 08:12:01;;;;;;;12.07;8.88;;;;;;;;;;5052306;28;20195;-74
2021/11/26 08:14:28;;;;;;;11.43;10.18;;;;;;;;;;5051483;28;20654;-75
2021/11/26 08:16:56;;;;;;;13.77;10.30;;;;;;;;;;5054847;28;20561;-74
2021/11/26 08:19:24;;;;;;;10.10;8.85;;;;;;;;;;5054749;28;20203;-76
2021/11/26 08:21:53;;;;;;;9.48;8.30;;;;;;;;;;5050418;28;20211;-74
2021/11/26 08:24:20;;;;;;;8.38;7.55;;;;;;;;;;5054728;28;20191;-75
2021/11/26 08:26:48;;;;;;;9.75;8.75;;;;;;;;;;5051232;28;20210;-75
2021/11/26 08:29:15;;;;;;;10.15;8.13;;;;;;;;;;5052155;28;20214;-76
2021/11/26 08:31:42;;;;;;;10.90;8.13;;;;;;;;;;5048126;28;20203;-74
2021/11/26 08:34:09;;;;;;;10.18;8.05;;;;;;;;;;5051761;28;20593;-74
2021/11/26 08:36:37;;;;;;;8.43;7.63;;;;;;;;;;5056307;28;20198;-75
2021/11/26 08:39:06;;;;;;;9.90;7.70;;;;;;;;;;5048822;28;20195;-74
2021/11/26 08:41:33;;;;;;;8.25;7.45;;;;;;;;;;5058036;28;20194;-75
2021/11/26 08:44:00;;;;;;;11.77;8.52;;;;;;;;;;5056384;28;20200;-75
2021/11/26 08:46:28;;;;;;;9.13;7.18;;;;;;;;;;5053167;28;20199;-74
2021/11/26 08:48:55;;;;;;;7.20;6.38;;;;;;;;;;5050132;28;20214;-74
2021/11/26 08:51:26;;;;;;;6.47;5.78;;;;;;;;;;5055331;28;20195;-78
2021/11/26 08:53:53;;;;;;;8.20;6.25;;;;;;;;;;5052296;28;20305;-76
2021/11/26 08:56:24;;;;;;;7.28;6.57;;;;;;;;;;5051746;28;20621;-74
2021/11/26 08:58:51;;;;;;;8.25;6.13;;;;;;;;;;5053773;28;20638;-75
2021/11/26 09:01:18;;;;;;;8.35;6.25;;;;;;;;;;5055725;28;20194;-74
2021/11/26 09:03:46;;;;;;;6.18;5.57;;;;;;;;;;5057848;28;20198;-73
2021/11/26 09:06:15;;;;;;;5.43;4.82;;;;;;;;;;5057173;28;20259;-74
2021/11/26 09:08:42;;;;;;;6.00;5.22;;;;;;;;;;5056872;28;20233;-74
2021/11/26 09:11:09;;;;;;;8.18;6.72;;;;;;;;;;5049895;28;20203;-75
2021/11/26 09:13:38;;;;;;;5.20;4.70;;;;;;;;;;5051596;28;20206;-75
2021/11/26 09:16:05;;;;;;;5.43;4.93;;;;;;;;;;5051383;28;20650;-75
2021/11/26 09:18:32;;;;;;;7.22;5.80;;;;;;;;;;5050544;28;20248;-74
2021/11/26 09:20:59;;;;;;;5.80;5.15;;;;;;;;;;5050279;28;20643;-75
2021/11/26 09:23:26;;;;;;;5.85;4.70;;;;;;;;;;5062411;28;20678;-74
2021/11/26 09:25:55;;;;;;;4.78;4.18;;;;;;;;;;5053651;28;20276;-75
2021/11/26 09:28:22;;;;;;;7.38;6.10;;;;;;;;;;5054249;28;20616;-75
2021/11/26 09:30:50;;;;;;;5.10;4.63;;;;;;;;;;5058276;28;20218;-75
2021/11/26 09:33:17;;;;;;;5.57;5.00;;;;;;;;;;5055167;28;20198;-77
2021/11/26 09:35:45;;;;;;;5.85;4.43;;;;;;;;;;5057437;28;20204;-74
2021/11/26 09:38:12;;;;;;;6.15;5.03;;;;;;;;;;5064233;28;20194;-75
2021/11/26 09:40:39;;;;;;;4.95;3.60;;;;;;;;;;5055415;28;20698;-74
2021/11/26 09:43:06;;;;;;;4.95;4.47;;;;;;;;;;5061267;28;20680;-74
2021/11/26 09:45:34;;;;;;;5.38;4.88;;;;;;;;;;5052885;28;20226;-76
2021/11/26 09:48:03;;;;;;;4.80;4.30;;;;;;;;;;5055825;28;20236;-74
2021/11/26 09:50:32;;;;;;;5.50;4.65;;;;;;;;;;5057868;28;20222;-73
2021/11/26 09:53:08;;;;;;;4.88;4.30;;;;;;;;;;5060718;28;20234;-75
2021/11/26 09:55:35;;;;;;;6.47;4.63;;;;;;;;;;5052192;28;20210;-75
2021/11/26 09:58:04;;;;;;;4.07;3.67;;;;;;;;;;5056974;28;20198;-77
2021/11/26 10:00:31;;;;;;;5.85;5.35;;;;;;;;;;5054830;28;20218;-74
2021/11/26 10:02:59;;;;;;;5.40;4.72;;;;;;;;;;5055185;28;20198;-75
2021/11/26 10:05:33;;;;;;;4.43;4.00;;;;;;;;;;5051833;28;20206;-76
2021/11/26 10:08:00;;;;;;;4.35;3.95;;;;;;;;;;5055405;28;20217;-77
2021/11/26 10:10:28;;;;;;;9.38;3.75;;;;;;;;;;5067777;28;20271;-76
2021/11/26 10:13:02;;;;;;;7.55;4.55;;;;;;;;;;5064600;28;20231;-75
2021/11/26 10:15:31;;;;;;;6.32;4.22;;;;;;;;;;5056207;28;20662;-75
2021/11/26 10:18:12;;;;;;;5.25;4.38;;;;;;;;;;5060781;28;20273;-76
2021/11/26 10:20:52;;;;;;;5.03;3.95;;;;;;;;;;5054069;28;20186;-74
2021/11/26 10:23:20;;;;;;;4.25;3.72;;;;;;;;;;5061747;28;20194;-75
2021/11/26 10:25:47;;;;;;;4.88;4.43;;;;;;;;;;5064692;28;20202;-75
2021/11/26 10:28:15;;;;;;;5.45;4.32;;;;;;;;;;5061053;28;20665;-77
2021/11/26 10:30:42;;;;;;;6.85;4.85;;;;;;;;;;5058603;28;20416;-74
2021/11/26 10:33:15;;;;;;;6.10;4.13;;;;;;;;;;5054032;28;20206;-75
2021/11/26 10:35:45;;;;;;;7.10;5.38;;;;;;;;;;5060571;28;20303;-75
2021/11/26 10:38:14;;;;;;;6.50;4.60;;;;;;;;;;5053520;28;20202;-78
2021/11/26 10:40:42;;;;;;;4.15;3.75;;;;;;;;;;5055393;28;20201;-74
2021/11/26 10:43:13;;;;;;;4.60;4.05;;;;;;;;;;5060343;28;20293;-76
2021/11/26 10:46:13;;;;;;;9.38;4.40;;;;;;;;;;5065803;28;20195;-74
2021/11/26 10:49:00;;;;;;;7.22;4.25;;;;;;;;;;5058380;28;20280;-76
2021/11/26 10:57:36;;;;;;;8.48;5.20;;;;;;;;;;5057212;28;20607;-74
2021/11/26 11:00:07;;;;;;;4.63;4.22;;;;;;;;;;5059402;28;20690;-74
2021/11/26 11:02:36;;;;;;;6.20;4.88;;;;;;;;;;5057566;28;20202;-76
2021/11/26 11:05:04;;;;;;;7.75;4.60;;;;;;;;;;5055056;28;20198;-75
2021/11/26 11:07:39;;;;;;;6.43;4.07;;;;;;;;;;5053272;28;20205;-78
2021/11/26 11:10:07;;;;;;;5.85;3.92;;;;;;;;;;5052233;28;20253;-75
2021/11/26 11:12:36;;;;;;;6.20;4.30;;;;;;;;;;5059698;28;20198;-76
2021/11/26 11:15:04;;;;;;;5.80;3.72;;;;;;;;;;5060465;28;20191;-74
2021/11/26 11:17:32;;;;;;;7.97;4.93;;;;;;;;;;5064054;28;20190;-77
2021/11/26 11:20:01;;;;;;;5.25;3.83;;;;;;;;;;5057184;28;20238;-75
2021/11/26 11:22:28;;;;;;;10.13;4.40;;;;;;;;;;5054635;28;20658;-74
2021/11/26 11:24:56;;;;;;;7.30;3.70;;;;;;;;;;5051065;28;20210;-76
2021/11/26 11:27:24;;;;;;;5.93;3.63;;;;;;;;;;5054713;28;20202;-74
2021/11/26 11:29:51;;;;;;;9.18;4.15;;;;;;;;;;5063307;28;20214;-77
2021/11/26 11:32:19;;;;;;;8.20;3.85;;;;;;;;;;5053251;28;20195;-74
2021/11/26 11:34:47;;;;;;;4.72;3.60;;;;;;;;;;5060691;28;20201;-74
2021/11/26 11:37:18;;;;;;;3.63;3.33;;;;;;;;;;5065820;28;20566;-73
2021/11/26 11:39:46;;;;;;;5.15;3.30;;;;;;;;;;5062237;28;20259;-74
2021/11/26 11:42:25;;;;;;;4.97;3.05;;;;;;;;;;5060599;28;20200;-74
2021/11/26 11:44:56;;;;;;;5.45;4.10;;;;;;;;;;5053163;28;20191;-77
2021/11/26 11:47:24;;;;;;;5.88;3.53;;;;;;;;;;5063725;28;20201;-74
2021/11/26 11:49:52;;;;;;;9.25;5.47;;;;;;;;;;5052402;28;20239;-74
2021/11/26 11:52:19;;;;;;;5.50;4.10;;;;;;;;;;5055338;28;20198;-74
2021/11/26 11:54:48;;;;;;;4.32;3.33;;;;;;;;;;5064769;28;20206;-78
2021/11/26 11:57:23;;;;;;;13.32;3.75;;;;;;;;;;5064483;28;20225;-75
2021/11/26 11:59:50;;;;;;;5.53;3.40;;;;;;;;;;5051799;28;20221;-75
2021/11/26 12:02:24;;;;;;;9.40;4.75;;;;;;;;;;5052817;28;20302;-76
2021/11/26 12:04:53;;;;;;;11.15;4.28;;;;;;;;;;5050100;28;20654;-74
2021/11/26 12:07:25;;;;;;;5.75;4.70;;;;;;;;;;5057005;28;20713;-75
2021/11/26 12:10:02;;;;;;;6.40;4.47;;;;;;;;;;5055726;28;20624;-75
2021/11/26 12:12:30;;;;;;;6.95;4.35;;;;;;;;;;5051722;28;20195;-75
2021/11/26 12:14:59;;;;;;;7.80;3.55;;;;;;;;;;5064030;28;20245;-73
2021/11/26 12:17:27;;;;;;;8.32;4.25;;;;;;;;;;5056511;28;20282;-76
2021/11/26 12:20:02;;;;;;;9.38;4.40;;;;;;;;;;5057538;28;20197;-74
2021/11/26 12:22:36;;;;;;;8.18;4.60;;;;;;;;;;5054354;28;20677;-74
2021/11/26 12:25:07;;;;;;;8.05;4.03;;;;;;;;;;5051677;28;20202;-74
2021/11/26 12:27:40;;;;;;;4.45;4.05;;;;;;;;;;5057533;28;20281;-74
2021/11/26 12:30:17;;;;;;;7.28;4.32;;;;;;;;;;5059807;28;20213;-73
2021/11/26 12:32:44;;;;;;;5.75;4.75;;;;;;;;;;5057593;28;20727;-74
2021/11/26 12:35:13;;;;;;;13.15;3.92;;;;;;;;;;5065895;28;20202;-74
2021/11/26 12:37:40;;;;;;;6.68;3.63;;;;;;;;;;5062754;28;20197;-75
2021/11/26 12:40:09;;;;;;;9.40;4.38;;;;;;;;;;5052768;28;20669;-73
2021/11/26 12:42:38;;;;;;;6.55;3.75;;;;;;;;;;5063677;28;20202;-74
2021/11/26 12:45:07;;;;;;;9.00;3.58;;;;;;;;;;5067759;28;20215;-73
2021/11/26 12:47:35;;;;;;;6.47;4.35;;;;;;;;;;5056096;28;20209;-75
2021/11/26 12:52:49;;;;;;;6.85;3.65;;;;;;;;;;5064219;28;20201;-75
2021/11/26 12:55:18;;;;;;;13.38;3.40;;;;;;;;;;5058295;28;20209;-74
2021/11/26 12:57:53;;;;;;;8.80;4.28;;;;;;;;;;5070392;28;20561;-73
2021/11/26 13:00:20;;;;;;;6.97;5.28;;;;;;;;;;5059271;28;22276;-74
2021/11/26 13:02:47;;;;;;;10.43;3.97;;;;;;;;;;5054105;28;20198;-74
2021/11/26 13:05:15;;;;;;;5.82;3.47;;;;;;;;;;5053295;28;20510;-73
2021/11/26 13:07:43;;;;;;;5.60;3.35;;;;;;;;;;5052362;28;20195;-73
2021/11/26 13:10:12;;;;;;;8.10;4.47;;;;;;;;;;5049714;28;20355;-73
2021/11/26 13:12:40;;;;;;;7.13;3.47;;;;;;;;;;5058447;28;20205;-74
2021/11/26 13:15:09;;;;;;;7.82;4.97;;;;;;;;;;5060201;28;20213;-76
2021/11/26 13:17:38;;;;;;;5.35;4.40;;;;;;;;;;5055173;28;20202;-76
2021/11/26 13:20:09;;;;;;;8.68;4.10;;;;;;;;;;5058815;28;20199;-74
2021/11/26 13:22:47;;;;;;;9.45;4.85;;;;;;;;;;5058663;28;20267;-73
2021/11/26 13:25:15;;;;;;;6.32;4.10;;;;;;;;;;5060605;28;20557;-75
2021/11/26 13:27:52;;;;;;;7.05;4.57;;;;;;;;;;5061294;28;20205;-74
2021/11/26 13:30:21;;;;;;;5.45;4.10;;;;;;;;;;5057187;28;20213;-75
2021/11/26 13:32:49;;;;;;;9.77;4.03;;;;;;;;;;5064556;28;20194;-74
2021/11/26 13:35:25;;;;;;;4.55;3.13;;;;;;;;;;5068472;28;20328;-75
2021/11/26 13:37:53;;;;;;;4.32;3.92;;;;;;;;;;5058287;28;20603;-75
2021/11/26 13:40:20;;;;;;;4.75;3.60;;;;;;;;;;5064438;28;20285;-73
2021/11/26 13:42:52;;;;;;;6.38;4.25;;;;;;;;;;5062380;28;20245;-73
2021/11/26 13:45:20;;;;;;;3.80;3.45;;;;;;;;;;5060254;28;20565;-74
2021/11/26 13:47:47;;;;;;;7.18;3.95;;;;;;;;;;5060606;28;20610;-74
2021/11/26 13:50:14;;;;;;;7.78;3.53;;;;;;;;;;5057012;28;20210;-73
2021/11/26 13:52:42;;;;;;;4.32;2.75;;;;;;;;;;5061675;28;20190;-73
2021/11/26 13:55:09;;;;;;;9.23;3.53;;;;;;;;;;5065589;28;20647;-75
2021/11/26 13:57:36;;;;;;;4.10;3.00;;;;;;;;;;5055271;28;20214;-73
2021/11/26 14:00:08;;;;;;;6.85;3.30;;;;;;;;;;5057786;28;20641;-73
2021/11/26 14:02:47;;;;;;;5.90;3.13;;;;;;;;;;5055508;28;20673;-76
2021/11/26 14:05:15;;;;;;;11.05;3.28;;;;;;;;;;5063468;28;20561;-73
2021/11/26 14:07:42;;;;;;;4.85;2.88;;;;;;;;;;5064280;28;20213;-75
2021/11/26 14:10:10;;;;;;;6.43;3.22;;;;;;;;;;5056258;28;20298;-77
2021/11/26 14:12:37;;;;;;;4.35;2.50;;;;;;;;;;5057683;28;20202;-78
2021/11/26 14:15:05;;;;;;;5.13;2.58;;;;;;;;;;5054277;28;20201;-77
2021/11/26 14:17:33;;;;;;;5.13;2.38;;;;;;;;;;5056094;28;20210;-75
2021/11/26 14:20:04;;;;;;;4.95;2.85;;;;;;;;;;5066397;28;20209;-75
2021/11/26 14:22:33;;;;;;;8.85;2.92;;;;;;;;;;5054424;28;20203;-78
2021/11/26 14:25:05;;;;;;;4.28;2.35;;;;;;;;;;5051254;28;20207;-76
2021/11/26 14:27:33;;;;;;;5.35;3.70;;;;;;;;;;5058202;28;20720;-77
2021/11/26 14:30:04;;;;;;;6.97;3.00;;;;;;;;;;5054753;28;20205;-77
2021/11/26 14:32:31;;;;;;;3.60;2.80;;;;;;;;;;5055785;28;20600;-74
2021/11/26 14:35:08;;;;;;;7.30;2.00;;;;;;;;;;5058406;28;20201;-75
2021/11/26 14:37:36;;;;;;;5.75;2.72;;;;;;;;;;5056017;28;20209;-75
2021/11/26 14:40:03;;;;;;;4.18;2.38;;;;;;;;;;5056418;28;20531;-74
2021/11/26 14:42:31;;;;;;;5.82;3.10;;;;;;;;;;5058385;28;20651;-75
2021/11/26 14:44:59;;;;;;;3.78;2.58;;;;;;;;;;5056567;28;20642;-76